Time;durP1;ratioP1;P1;durP2;ratioP2;P2;SDS_P1;SDS_P2;PMS_P1;PMS_P2;Temp;Humidity;BMP_temperature;BMP_pressure;BME280_temperature;BME280_humidity;BME280_pressure;Samples;Min_cycle;Max_cycle;Signal;HPM_P1;HPM_P2
2021/05/22 00:01:46;;;;;;;4.95;1.98;;;;;;;14.17;60.91;100615.54;1833937;77;22179;-52
2021/05/22 00:04:19;;;;;;;1.80;1.32;;;;;;;14.14;61.03;100607.67;1820994;77;22143;-52
2021/05/22 00:06:52;;;;;;;2.52;1.32;;;;;;;14.12;60.96;100606.39;1834865;77;22171;-52
2021/05/22 00:09:25;;;;;;;4.42;1.35;;;;;;;14.13;60.81;100610.75;1819635;77;22201;-52
2021/05/22 00:12:11;;;;;;;3.27;1.30;;;;;;;14.08;60.87;100616.63;1790967;80;21094;-54
2021/05/22 00:14:44;;;;;;;2.42;1.40;;;;;;;14.03;61.25;100615.87;1830781;77;22146;-52
2021/05/22 00:17:17;;;;;;;4.28;1.77;;;;;;;14.06;61.36;100616.23;1830848;77;22615;-52
2021/05/22 00:19:50;;;;;;;2.27;1.40;;;;;;;14.12;61.28;100619.63;1831470;77;22185;-52
2021/05/22 00:22:23;;;;;;;2.60;1.47;;;;;;;14.20;61.19;100622.09;1815919;77;22609;-52
2021/05/22 00:24:57;;;;;;;1.62;1.20;;;;;;;14.19;61.20;100622.11;1811834;77;22158;-52
2021/05/22 00:27:31;;;;;;;3.98;1.45;;;;;;;14.19;61.31;100634.02;1828093;77;22183;-52
2021/05/22 00:30:17;;;;;;;5.35;1.90;;;;;;;14.16;61.27;100637.63;1752603;81;21134;-54
2021/05/22 00:32:50;;;;;;;5.12;1.85;;;;;;;14.22;61.26;100641.89;1811726;77;22187;-52
2021/05/22 00:35:23;;;;;;;3.35;1.52;;;;;;;14.24;61.24;100637.43;1834790;77;22175;-52
2021/05/22 00:37:56;;;;;;;1.90;1.22;;;;;;;14.31;61.09;100636.39;1821683;77;22174;-52
2021/05/22 00:40:36;;;;;;;2.87;1.70;;;;;;;14.26;61.15;100635.62;1816920;77;22617;-52
2021/05/22 00:43:09;;;;;;;3.95;1.42;;;;;;;14.30;61.16;100635.11;1835863;77;22185;-52
2021/05/22 00:45:44;;;;;;;2.95;1.50;;;;;;;14.28;61.10;100635.13;1834801;77;22175;-52
2021/05/22 00:48:30;;;;;;;3.75;1.50;;;;;;;14.25;61.07;100643.14;1761426;80;21165;-53
2021/05/22 00:51:04;;;;;;;1.90;1.40;;;;;;;14.17;61.24;100637.16;1823313;77;22135;-52
2021/05/22 00:53:37;;;;;;;2.67;1.27;;;;;;;14.20;60.90;100638.41;1807707;77;22146;-52
2021/05/22 00:56:23;;;;;;;4.03;1.75;;;;;;;14.16;60.83;100648.64;1764738;80;21563;-54
2021/05/22 00:58:56;;;;;;;1.90;1.30;;;;;;;14.13;60.88;100638.55;1794733;77;22686;-52
2021/05/22 01:01:29;;;;;;;3.92;1.40;;;;;;;14.10;60.83;100643.05;1842871;77;22157;-53
2021/05/22 01:04:03;;;;;;;2.08;1.17;;;;;;;14.10;60.79;100653.64;1807069;77;22574;-52
2021/05/22 01:06:37;;;;;;;2.20;1.40;;;;;;;13.96;60.94;100656.12;1821308;77;22155;-52
2021/05/22 01:09:13;;;;;;;3.42;1.52;;;;;;;13.91;60.95;100653.17;1805497;77;22586;-52
2021/05/22 01:11:57;;;;;;;2.35;1.47;;;;;;;13.84;61.03;100655.09;1820126;77;22562;-52
2021/05/22 01:14:47;;;;;;;4.80;1.60;;;;;;;13.80;61.16;100664.00;1692390;84;21276;-53
2021/05/22 01:17:20;;;;;;;2.08;1.35;;;;;;;13.87;60.95;100660.33;1823458;77;22131;-52
2021/05/22 01:20:32;;;;;;;2.05;1.55;;;;;;;13.87;60.86;100663.41;1826371;77;22138;-52
2021/05/22 01:23:13;;;;;;;3.80;1.70;;;;;;;13.16;62.53;100659.04;1823735;77;20112;-52
2021/05/22 01:25:46;;;;;;;6.17;1.70;;;;;;;13.62;61.41;100656.00;1812112;77;22637;-52
2021/05/22 01:28:34;;;;;;;2.02;1.17;;;;;;;13.65;61.14;100656.80;1741716;81;21131;-53
2021/05/22 01:31:08;;;;;;;4.03;1.60;;;;;;;13.68;60.94;100652.77;1853112;77;22606;-52
2021/05/22 01:33:41;;;;;;;2.77;1.65;;;;;;;13.68;60.82;100651.44;1813497;77;22621;-52
2021/05/22 01:36:26;;;;;;;4.28;1.85;;;;;;;13.65;60.82;100655.47;1753491;82;21306;-54
2021/05/22 01:39:00;;;;;;;3.98;1.45;;;;;;;13.68;60.71;100652.77;1804849;77;22167;-53
2021/05/22 01:41:33;;;;;;;2.98;1.20;;;;;;;12.94;62.38;100648.88;1830050;77;22611;-53
2021/05/22 01:44:06;;;;;;;3.55;1.60;;;;;;;13.41;61.36;100649.34;1801346;77;22180;-53
2021/05/22 01:46:52;;;;;;;3.77;2.22;;;;;;;13.49;60.96;100644.77;1761970;80;21596;-54
2021/05/22 01:49:28;;;;;;;2.30;1.62;;;;;;;13.53;61.02;100638.52;1893441;74;22131;-53
2021/05/22 01:52:21;;;;;;;4.75;2.87;;;;;;;13.62;60.76;100634.38;1803270;77;28087;-55
2021/05/22 01:54:55;;;;;;;3.87;1.92;;;;;;;13.53;61.02;100638.09;1834782;77;22124;-52
2021/05/22 01:57:40;;;;;;;3.55;1.60;;;;;;;13.53;60.89;100637.20;1733245;81;21331;-54
2021/05/22 02:00:15;;;;;;;3.17;1.80;;;;;;;13.44;61.10;100630.34;1827157;77;22124;-53
2021/05/22 02:02:59;;;;;;;2.37;1.77;;;;;;;13.47;61.20;100636.00;1828218;77;22201;-53
2021/05/22 02:05:47;;;;;;;2.85;1.60;;;;;;;13.44;61.13;100647.52;1745011;80;21319;-54
2021/05/22 02:08:21;;;;;;;3.95;1.95;;;;;;;13.45;61.23;100642.66;1816138;77;22602;-52
2021/05/22 02:10:54;;;;;;;4.62;1.90;;;;;;;13.42;61.26;100645.36;1815275;77;22625;-53
2021/05/22 02:13:41;;;;;;;2.45;1.65;;;;;;;13.45;61.10;100654.55;1762061;81;21777;-55
2021/05/22 02:16:16;;;;;;;5.28;2.60;;;;;;;13.51;61.09;100655.76;1826898;77;22167;-52
2021/05/22 02:18:49;;;;;;;2.90;1.62;;;;;;;13.51;60.98;100657.52;1825199;77;22211;-53
2021/05/22 02:21:36;;;;;;;6.65;2.10;;;;;;;13.30;61.43;100662.30;1787332;80;21135;-53
2021/05/22 02:24:12;;;;;;;4.05;2.17;;;;;;;13.26;61.68;100661.94;1789527;77;22179;-53
2021/05/22 02:26:45;;;;;;;3.45;1.65;;;;;;;13.30;61.49;100667.59;1842107;77;22170;-53
2021/05/22 02:29:20;;;;;;;2.83;1.62;;;;;;;13.21;61.62;100668.65;1816738;77;22158;-53
2021/05/22 02:32:06;;;;;;;3.77;2.05;;;;;;;13.15;61.81;100676.69;1793323;80;21537;-55
2021/05/22 02:34:54;;;;;;;4.83;2.35;;;;;;;13.22;62.00;100677.43;1814205;77;22154;-53
2021/05/22 02:37:30;;;;;;;6.65;2.10;;;;;;;13.23;62.06;100678.74;1837291;77;22577;-53
2021/05/22 02:40:12;;;;;;;3.58;2.20;;;;;;;13.30;62.04;100694.46;1827305;77;20114;-53
2021/05/22 02:43:02;;;;;;;3.70;2.12;;;;;;;13.31;61.92;100698.84;1770296;80;21538;-54
2021/05/22 02:45:38;;;;;;;2.90;1.87;;;;;;;13.30;62.05;100693.14;1809941;77;22130;-53
2021/05/22 02:48:17;;;;;;;4.58;1.90;;;;;;;13.30;61.96;100704.60;1812735;77;20125;-53
2021/05/22 02:50:50;;;;;;;3.83;1.60;;;;;;;13.24;61.97;100709.56;1825920;77;22135;-53
2021/05/22 02:53:37;;;;;;;2.50;1.72;;;;;;;13.13;61.74;100709.30;1723837;83;21730;-54
2021/05/22 02:56:10;;;;;;;3.08;2.00;;;;;;;13.03;61.85;100716.06;1829918;77;22552;-53
2021/05/22 02:58:44;;;;;;;2.60;1.70;;;;;;;13.00;61.68;100713.50;1811557;77;22198;-52
2021/05/22 03:01:32;;;;;;;3.58;2.08;;;;;;;12.94;61.75;100722.39;1762014;80;21151;-55
2021/05/22 03:04:05;;;;;;;3.75;2.20;;;;;;;12.99;61.88;100726.30;1805984;77;22167;-52
2021/05/22 03:06:38;;;;;;;5.00;2.67;;;;;;;13.02;62.00;100727.56;1818122;77;22154;-53
2021/05/22 03:09:11;;;;;;;3.50;2.77;;;;;;;13.08;62.01;100731.86;1804609;77;22486;-53
2021/05/22 03:11:45;;;;;;;4.28;2.77;;;;;;;13.09;61.99;100728.32;1834777;77;22179;-52
2021/05/22 03:14:18;;;;;;;6.28;2.60;;;;;;;13.12;62.08;100722.98;1817134;77;22158;-53
2021/05/22 03:16:51;;;;;;;3.90;2.55;;;;;;;13.17;62.15;100720.25;1824314;77;22136;-52
2021/05/22 03:19:38;;;;;;;3.77;2.27;;;;;;;13.17;62.15;100727.75;1761852;81;21613;-53
2021/05/22 03:22:12;;;;;;;3.20;2.27;;;;;;;13.27;62.18;100725.80;1819104;77;22186;-53
2021/05/22 03:24:45;;;;;;;4.08;2.42;;;;;;;13.29;62.24;100725.33;1821458;77;22158;-53
2021/05/22 03:27:18;;;;;;;3.83;2.60;;;;;;;13.32;62.31;100721.74;1804456;77;22182;-53
2021/05/22 03:30:07;;;;;;;3.90;2.52;;;;;;;13.33;62.50;100725.70;1758587;81;21139;-54
2021/05/22 03:32:40;;;;;;;4.53;2.50;;;;;;;13.51;62.79;100726.27;1823269;77;20157;-53
2021/05/22 03:35:13;;;;;;;3.42;2.40;;;;;;;13.62;63.00;100730.91;1826247;77;22157;-53
2021/05/22 03:37:46;;;;;;;5.78;2.20;;;;;;;13.74;63.27;100734.22;1824481;77;22166;-53
2021/05/22 03:40:33;;;;;;;3.08;1.98;;;;;;;13.87;63.35;100734.84;1761540;81;21107;-54
2021/05/22 03:43:06;;;;;;;3.10;2.15;;;;;;;14.09;63.52;100732.63;1794920;77;22216;-53
2021/05/22 03:45:39;;;;;;;3.33;2.12;;;;;;;14.21;63.77;100733.69;1834777;77;22176;-53
2021/05/22 03:48:12;;;;;;;2.83;2.12;;;;;;;14.37;63.74;100736.86;1836025;77;22201;-53
2021/05/22 03:50:46;;;;;;;3.92;2.37;;;;;;;14.52;63.79;100747.56;1837329;77;22522;-54
2021/05/22 03:53:19;;;;;;;3.05;2.27;;;;;;;14.67;63.92;100748.98;1798553;77;22195;-53
2021/05/22 03:55:52;;;;;;;4.22;2.20;;;;;;;14.89;63.74;100751.59;1853118;77;22178;-53
2021/05/22 03:58:44;;;;;;;4.70;2.47;;;;;;;15.12;63.63;100751.03;1825969;77;22288;-56
2021/05/22 04:01:27;;;;;;;3.37;2.10;;;;;;;15.15;63.87;100753.17;1843364;77;22147;-53
2021/05/22 04:04:00;;;;;;;4.37;2.58;;;;;;;15.41;63.79;100750.75;1788183;77;22177;-54
2021/05/22 04:06:46;;;;;;;4.78;2.45;;;;;;;15.43;63.79;100759.07;1749344;81;21177;-55
2021/05/22 04:09:25;;;;;;;4.70;2.40;;;;;;;15.56;63.89;100758.28;1812815;77;22131;-54
2021/05/22 04:11:58;;;;;;;3.10;2.02;;;;;;;15.69;64.05;100757.48;1815745;77;22562;-54
2021/05/22 04:14:31;;;;;;;3.37;2.25;;;;;;;15.86;64.10;100758.40;1819932;77;22185;-54
2021/05/22 04:17:17;;;;;;;3.20;2.27;;;;;;;16.06;63.70;100759.59;1790612;80;21534;-55
2021/05/22 04:19:50;;;;;;;4.05;2.10;;;;;;;16.30;63.80;100759.80;1820564;77;22152;-54
2021/05/22 04:22:23;;;;;;;4.97;3.22;;;;;;;16.44;63.66;100766.02;1819807;77;22180;-54
2021/05/22 04:24:56;;;;;;;3.75;2.62;;;;;;;16.70;64.04;100772.29;1824279;77;22155;-55
2021/05/22 04:27:41;;;;;;;3.67;2.52;;;;;;;16.91;63.96;100778.27;1781886;80;21281;-56
2021/05/22 04:30:17;;;;;;;3.87;2.55;;;;;;;17.18;63.96;100780.95;1834752;77;22594;-54
2021/05/22 04:32:50;;;;;;;3.40;2.30;;;;;;;17.36;63.74;100783.92;1819465;77;22181;-54
2021/05/22 04:35:23;;;;;;;2.75;2.30;;;;;;;17.55;63.34;100781.49;1806141;77;22155;-55
2021/05/22 04:38:09;;;;;;;3.10;1.70;;;;;;;17.65;63.55;100782.92;1762744;80;21164;-55
2021/05/22 04:40:42;;;;;;;3.95;2.30;;;;;;;17.84;63.37;100782.23;1822713;77;22162;-54
2021/05/22 04:43:15;;;;;;;3.80;2.17;;;;;;;17.99;63.35;100779.50;1817361;77;22739;-55
2021/05/22 04:45:48;;;;;;;3.65;1.98;;;;;;;18.19;63.25;100781.90;1818680;77;22130;-55
2021/05/22 04:48:21;;;;;;;2.87;2.08;;;;;;;18.34;63.34;100771.97;1798199;77;22182;-54
2021/05/22 04:50:55;;;;;;;4.75;2.00;;;;;;;18.55;62.81;100770.74;1817634;77;22172;-54
2021/05/22 04:53:28;;;;;;;3.10;2.20;;;;;;;18.75;62.34;100772.61;1793865;77;22201;-55
2021/05/22 04:56:07;;;;;;;2.90;1.90;;;;;;;18.96;62.00;100768.23;1798638;77;22149;-55
2021/05/22 04:58:53;;;;;;;2.80;1.70;;;;;;;19.05;60.93;100772.79;1717707;81;21241;-56
2021/05/22 05:01:26;;;;;;;2.87;1.67;;;;;;;19.23;61.14;100768.48;1815919;77;22134;-55
2021/05/22 05:03:59;;;;;;;4.20;2.00;;;;;;;19.45;60.81;100771.95;1790709;77;22193;-55
2021/05/22 05:06:32;;;;;;;3.65;2.00;;;;;;;19.63;60.02;100771.24;1819107;77;22163;-55
2021/05/22 05:09:06;;;;;;;4.25;1.80;;;;;;;19.79;59.00;100773.61;1799151;77;22208;-55
2021/05/22 05:11:39;;;;;;;2.42;1.90;;;;;;;19.99;58.92;100775.41;1834511;77;22164;-54
2021/05/22 05:14:12;;;;;;;2.83;1.62;;;;;;;20.20;58.41;100777.56;1800923;77;22187;-55
2021/05/22 05:16:46;;;;;;;3.47;1.70;;;;;;;20.15;58.70;100778.24;1834779;77;22179;-55
2021/05/22 05:19:28;;;;;;;3.02;1.60;;;;;;;20.30;58.26;100778.03;1819725;77;22173;-54
2021/05/22 05:22:15;;;;;;;2.47;1.42;;;;;;;20.53;58.19;100776.05;1725783;81;21178;-56
2021/05/22 05:24:49;;;;;;;2.72;1.57;;;;;;;20.86;57.65;100771.86;1831952;77;22154;-55
2021/05/22 05:27:28;;;;;;;4.60;1.82;;;;;;;21.17;57.46;100772.53;1827544;77;22692;-55
2021/05/22 05:30:02;;;;;;;3.77;1.22;;;;;;;21.41;56.55;100769.53;1828905;77;22167;-55
2021/05/22 05:32:35;;;;;;;2.70;1.40;;;;;;;21.67;55.70;100776.24;1842483;77;22200;-55
2021/05/22 05:35:21;;;;;;;2.35;1.30;;;;;;;21.80;54.91;100772.44;1762140;80;21131;-56
2021/05/22 05:38:00;;;;;;;2.75;1.47;;;;;;;21.95;53.58;100776.59;1820160;77;22198;-55
2021/05/22 05:40:33;;;;;;;1.98;1.32;;;;;;;22.10;53.93;100781.09;1818194;77;22162;-55
2021/05/22 05:43:10;;;;;;;2.00;1.12;;;;;;;22.31;53.64;100779.55;1819822;77;22167;-55
2021/05/22 05:45:41;;;;;;;1.65;1.10;;;;;;;22.68;53.94;100780.67;1852185;77;22147;-55
2021/05/22 05:48:27;;;;;;;3.60;1.30;;;;;;;22.97;53.70;100783.00;1757546;81;21161;-56
2021/05/22 05:51:00;;;;;;;1.55;1.00;;;;;;;23.34;52.29;100772.44;1853133;77;22174;-55
2021/05/22 05:53:35;;;;;;;2.05;1.10;;;;;;;23.64;52.07;100775.06;1813643;77;22186;-55
2021/05/22 05:56:08;;;;;;;1.95;0.90;;;;;;;23.91;50.86;100780.56;1853122;77;22178;-55
2021/05/22 05:58:41;;;;;;;1.47;1.00;;;;;;;24.07;49.99;100779.65;1829510;77;22157;-55
2021/05/22 06:01:14;;;;;;;1.90;0.93;;;;;;;24.31;49.65;100775.00;1825456;77;22158;-55
2021/05/22 06:03:48;;;;;;;1.85;1.10;;;;;;;24.52;50.12;100760.64;1805676;77;22578;-55
2021/05/22 06:06:21;;;;;;;4.00;1.25;;;;;;;24.70;48.68;100768.02;1853258;77;22178;-55
2021/05/22 06:09:06;;;;;;;1.17;0.80;;;;;;;24.90;49.19;100769.42;1788432;80;21173;-56
2021/05/22 06:11:39;;;;;;;1.32;0.80;;;;;;;25.23;48.24;100766.76;1834807;77;22152;-55
2021/05/22 06:14:34;;;;;;;1.10;0.80;;;;;;;25.52;47.76;100763.91;1804841;77;22178;-55
2021/05/22 06:17:02;;;;;;;0.95;0.85;;;;;;;25.78;47.01;100767.10;1831637;77;22134;-55
2021/05/22 06:19:48;;;;;;;2.22;1.10;;;;;;;25.90;45.34;100768.94;1771286;80;21150;-55
2021/05/22 06:22:21;;;;;;;2.52;1.30;;;;;;;26.09;44.98;100765.78;1825386;77;22198;-55
2021/05/22 06:24:55;;;;;;;2.67;0.98;;;;;;;26.21;44.28;100762.72;1812407;77;22554;-55
2021/05/22 06:27:28;;;;;;;2.22;0.95;;;;;;;26.32;43.72;100771.37;1831665;77;22195;-55
2021/05/22 06:30:01;;;;;;;1.60;1.17;;;;;;;26.32;43.08;100770.52;1834762;77;22180;-55
2021/05/22 06:32:54;;;;;;;1.42;0.75;;;;;;;26.68;43.94;100767.43;1824611;77;22277;-57
2021/05/22 06:35:28;;;;;;;1.67;0.98;;;;;;;27.07;41.83;100760.53;1796320;77;22156;-55
2021/05/22 06:38:01;;;;;;;2.77;1.25;;;;;;;27.27;41.09;100757.66;1805065;77;22226;-55
2021/05/22 06:40:34;;;;;;;3.20;1.10;;;;;;;27.46;41.57;100759.78;1820160;77;22163;-55
2021/05/22 06:43:07;;;;;;;3.60;1.20;;;;;;;27.69;41.69;100763.42;1813641;77;22197;-55
2021/05/22 06:46:46;;;;;;;1.62;0.80;;;;;;;28.07;41.67;100756.42;1832807;77;22203;-55
2021/05/22 06:48:50;;;;;;;1.22;0.70;;;;;;;28.42;41.27;100755.42;1826642;77;22166;-55
2021/05/22 06:51:36;;;;;;;1.50;0.60;;;;;;;28.64;40.68;100748.61;1793414;80;21269;-57
2021/05/22 06:54:09;;;;;;;2.17;0.90;;;;;;;28.78;39.00;100748.84;1790325;77;22193;-55
2021/05/22 06:56:42;;;;;;;1.95;0.68;;;;;;;28.97;38.47;100748.63;1843971;77;22166;-55
2021/05/22 06:59:16;;;;;;;2.72;1.00;;;;;;;29.09;37.70;100747.58;1804151;77;22182;-55
2021/05/22 07:01:49;;;;;;;2.30;0.60;;;;;;;29.31;36.67;100745.76;1838348;77;22539;-55
2021/05/22 07:04:22;;;;;;;1.10;0.70;;;;;;;29.47;35.61;100743.09;1814611;77;22598;-56
2021/05/22 07:06:57;;;;;;;4.12;1.02;;;;;;;29.59;35.90;100742.50;1825001;77;27903;-56
2021/05/22 07:09:44;;;;;;;1.75;0.60;;;;;;;29.71;36.40;100742.79;1766094;80;21138;-56
2021/05/22 07:12:23;;;;;;;1.37;0.60;;;;;;;29.96;34.98;100738.77;1810533;77;22224;-55
2021/05/22 07:14:56;;;;;;;1.85;0.75;;;;;;;30.17;34.31;100735.65;1811528;77;22562;-55
2021/05/22 07:17:29;;;;;;;2.85;0.80;;;;;;;30.33;33.30;100733.75;1824098;77;22197;-55
2021/05/22 07:20:05;;;;;;;1.65;0.60;;;;;;;30.30;34.33;100738.98;1830567;77;22143;-55
2021/05/22 07:22:38;;;;;;;1.57;0.70;;;;;;;30.41;34.07;100743.42;1800521;77;28017;-55
2021/05/22 07:25:24;;;;;;;1.85;0.70;;;;;;;30.66;34.89;100745.30;1762054;81;21187;-57
2021/05/22 07:27:57;;;;;;;0.90;0.55;;;;;;;30.95;32.33;100746.64;1814270;77;22187;-55
2021/05/22 07:30:31;;;;;;;1.17;0.62;;;;;;;31.19;31.62;100743.15;1813296;77;22635;-56
2021/05/22 07:33:04;;;;;;;1.40;0.68;;;;;;;31.42;31.66;100739.12;1820443;77;22187;-55
2021/05/22 07:35:38;;;;;;;1.32;0.65;;;;;;;31.71;31.26;100747.69;1828007;77;22182;-55
2021/05/22 07:38:23;;;;;;;1.32;0.50;;;;;;;31.94;31.43;100749.20;1773434;80;21187;-56
2021/05/22 07:40:57;;;;;;;1.27;0.70;;;;;;;32.15;30.84;100742.16;1834761;77;22175;-56
2021/05/22 07:43:49;;;;;;;3.27;0.65;;;;;;;32.25;29.87;100738.87;1826753;77;22281;-56
2021/05/22 07:46:35;;;;;;;1.27;0.90;;;;;;;32.25;27.44;100736.16;1746006;80;21288;-56
2021/05/22 07:49:09;;;;;;;1.87;0.70;;;;;;;31.93;24.94;100733.39;1801382;77;22194;-55
2021/05/22 07:51:48;;;;;;;2.85;0.82;;;;;;;31.59;26.38;100732.05;1833936;77;22143;-55
2021/05/22 07:54:21;;;;;;;0.95;0.60;;;;;;;31.52;27.78;100730.08;1820277;77;22201;-56
2021/05/22 07:57:09;;;;;;;1.75;0.68;;;;;;;31.83;28.38;100730.69;1782812;80;21636;-56
2021/05/22 07:59:42;;;;;;;2.45;0.70;;;;;;;32.40;28.85;100724.27;1808257;77;22155;-55
2021/05/22 08:02:16;;;;;;;1.00;0.60;;;;;;;32.83;28.04;100720.92;1831438;77;22176;-55
2021/05/22 08:05:03;;;;;;;2.52;0.98;;;;;;;33.11;28.43;100725.80;1752447;80;21127;-56
2021/05/22 08:07:37;;;;;;;1.02;0.50;;;;;;;33.40;25.97;100717.00;1844730;77;22190;-55
2021/05/22 08:10:14;;;;;;;4.40;0.80;;;;;;;33.62;26.04;100719.16;1823743;77;22151;-56
2021/05/22 08:12:46;;;;;;;1.70;0.50;;;;;;;33.76;26.95;100726.41;1818185;77;22174;-55
2021/05/22 08:15:19;;;;;;;1.20;0.53;;;;;;;33.88;27.79;100719.65;1816247;77;22123;-56
2021/05/22 08:18:12;;;;;;;1.02;0.60;;;;;;;34.20;25.72;100718.61;1818015;77;22238;-57
2021/05/22 08:20:45;;;;;;;0.78;0.70;;;;;;;34.27;26.16;100720.98;1834780;77;22144;-55
2021/05/22 08:23:18;;;;;;;1.45;0.60;;;;;;;34.46;26.25;100719.87;1816339;77;22591;-55
2021/05/22 08:25:51;;;;;;;1.37;0.50;;;;;;;34.69;26.23;100724.70;1841312;77;22154;-56
2021/05/22 08:28:27;;;;;;;3.02;0.78;;;;;;;34.82;26.04;100722.33;1815823;77;22170;-55
2021/05/22 08:30:59;;;;;;;3.15;0.75;;;;;;;34.89;24.37;100726.59;1825809;77;22174;-55
2021/05/22 08:33:33;;;;;;;1.20;0.60;;;;;;;34.68;24.03;100725.19;1807290;77;22144;-56
2021/05/22 08:36:07;;;;;;;3.75;1.25;;;;;;;34.76;24.84;100728.47;1820731;77;22590;-55
2021/05/22 08:38:53;;;;;;;1.55;0.50;;;;;;;34.71;23.51;100728.13;1766468;80;21593;-56
2021/05/22 08:41:26;;;;;;;2.42;0.65;;;;;;;34.88;25.11;100730.34;1839233;77;22584;-56
2021/05/22 08:44:02;;;;;;;1.85;0.70;;;;;;;35.11;25.17;100723.70;1825501;77;22165;-56
2021/05/22 08:46:35;;;;;;;3.62;0.85;;;;;;;35.35;26.17;100723.84;1837336;77;28352;-55
2021/05/22 08:49:09;;;;;;;2.00;1.00;;;;;;;35.34;23.01;100718.87;1804797;77;22183;-55
2021/05/22 08:51:43;;;;;;;2.00;0.50;;;;;;;34.90;19.67;100712.39;1822547;77;22606;-55
2021/05/22 08:54:16;;;;;;;1.47;0.50;;;;;;;34.22;19.05;100711.94;1798605;77;22190;-55
2021/05/22 08:57:02;;;;;;;2.42;0.75;;;;;;;33.51;21.12;100718.09;1764379;81;21515;-56
2021/05/22 08:59:41;;;;;;;2.52;0.70;;;;;;;33.13;21.35;100712.86;1830182;77;22135;-55
2021/05/22 09:02:18;;;;;;;1.25;0.60;;;;;;;33.03;22.30;100718.42;1831649;77;22614;-55
2021/05/22 09:05:27;;;;;;;1.37;0.65;;;;;;;32.81;22.88;100708.84;1811170;77;22155;-55
2021/05/22 09:08:04;;;;;;;1.42;0.68;;;;;;;32.87;22.21;100711.45;1816990;77;22173;-58
2021/05/22 09:10:52;;;;;;;1.22;0.57;;;;;;;32.84;22.44;100712.64;1762138;80;21130;-60
2021/05/22 09:13:27;;;;;;;2.00;0.70;;;;;;;32.59;22.53;100708.80;1800160;77;28451;-58
2021/05/22 09:16:06;;;;;;;2.77;0.80;;;;;;;32.45;21.58;100704.75;1799994;77;28443;-56
2021/05/22 09:18:42;;;;;;;1.45;0.70;;;;;;;32.37;21.63;100707.39;1803230;77;22212;-55
2021/05/22 09:21:15;;;;;;;1.52;0.75;;;;;;;32.59;23.00;100699.27;1819181;77;27966;-56
2021/05/22 09:23:50;;;;;;;2.55;0.60;;;;;;;33.07;22.97;100700.73;1805546;77;22614;-58
2021/05/22 09:26:36;;;;;;;0.62;0.60;;;;;;;33.39;23.52;100697.56;1753480;81;21118;-59
2021/05/22 09:29:09;;;;;;;3.00;0.95;;;;;;;34.02;22.33;100688.66;1805021;77;22174;-55
2021/05/22 09:31:42;;;;;;;1.32;0.60;;;;;;;34.12;22.44;100685.28;1834718;77;22136;-56
2021/05/22 09:34:15;;;;;;;1.00;0.57;;;;;;;34.57;21.69;100684.55;1822131;77;22655;-59
2021/05/22 09:36:48;;;;;;;3.50;0.78;;;;;;;34.99;21.55;100678.09;1809793;77;22158;-59
2021/05/22 09:39:21;;;;;;;1.25;0.60;;;;;;;35.07;22.45;100677.22;1813532;77;22213;-56
2021/05/22 09:41:54;;;;;;;1.62;0.70;;;;;;;35.27;22.54;100679.06;1843407;77;22182;-57
2021/05/22 09:44:40;;;;;;;1.60;0.60;;;;;;;35.55;23.39;100684.66;1757823;81;21539;-57
2021/05/22 09:47:13;;;;;;;2.35;0.68;;;;;;;35.95;22.94;100677.84;1831749;77;22171;-56
2021/05/22 09:49:49;;;;;;;1.47;0.90;;;;;;;36.14;22.95;100683.41;1828687;77;22167;-58
2021/05/22 09:52:22;;;;;;;1.67;0.60;;;;;;;36.37;22.29;100686.17;1829837;77;22182;-57
2021/05/22 09:55:15;;;;;;;2.02;0.78;;;;;;;36.69;21.76;100676.02;1799544;77;22224;-57
2021/05/22 09:57:49;;;;;;;1.45;0.70;;;;;;;36.86;17.55;100674.52;1817791;77;22199;-57
2021/05/22 10:00:36;;;;;;;0.70;0.70;;;;;;;36.09;18.63;100675.72;1758324;81;21154;-59
2021/05/22 10:03:14;;;;;;;1.80;0.70;;;;;;;35.83;21.93;100682.83;1814735;77;22173;-56
2021/05/22 10:05:48;;;;;;;1.60;0.60;;;;;;;36.16;20.38;100678.61;1834774;77;22551;-56
2021/05/22 10:08:21;;;;;;;0.90;0.60;;;;;;;36.21;19.12;100669.83;1816449;77;22648;-56
2021/05/22 10:15:34;;;;;;;1.10;0.70;;;;;;;36.22;19.10;100665.53;1804668;77;28608;-56
2021/05/22 10:18:08;;;;;;;1.35;0.70;;;;;;;36.08;17.96;100664.95;1837377;77;22190;-56
2021/05/22 10:20:41;;;;;;;1.50;0.60;;;;;;;35.85;18.33;100664.34;1813043;77;22160;-55
2021/05/22 10:23:15;;;;;;;2.62;0.70;;;;;;;35.59;20.52;100665.49;1818133;77;22179;-55
2021/05/22 10:25:51;;;;;;;2.60;0.78;;;;;;;36.03;22.07;100665.47;1834786;77;22179;-55
2021/05/22 10:28:24;;;;;;;0.98;0.55;;;;;;;36.52;20.38;100651.14;1814610;77;20137;-55
2021/05/22 10:30:57;;;;;;;2.37;0.60;;;;;;;36.79;21.25;100655.19;1812006;77;22539;-55
2021/05/22 10:33:36;;;;;;;1.25;0.57;;;;;;;37.27;21.64;100659.05;1830988;77;22731;-55
2021/05/22 10:36:47;;;;;;;0.72;0.60;;;;;;;37.60;20.95;100652.33;1768596;80;21454;-56
2021/05/22 10:39:43;;;;;;;1.55;0.50;;;;;;;37.94;19.90;100650.36;1806258;77;22196;-55
2021/05/22 10:42:25;;;;;;;1.05;0.70;;;;;;;37.97;20.18;100653.77;1815350;77;27913;-55
2021/05/22 10:45:37;;;;;;;0.80;0.50;;;;;;;37.97;17.97;100656.52;1762231;81;21320;-56
2021/05/22 10:48:21;;;;;;;2.10;0.62;;;;;;;37.82;17.55;100648.28;1809458;77;22181;-55
2021/05/22 10:50:55;;;;;;;1.35;0.60;;;;;;;37.69;20.06;100650.34;1834768;77;22140;-55
2021/05/22 10:53:34;;;;;;;0.60;0.50;;;;;;;37.98;20.11;100643.94;1814877;77;22179;-55
2021/05/22 10:56:17;;;;;;;0.57;0.50;;;;;;;38.29;18.77;100635.08;1853169;77;22119;-55
2021/05/22 10:59:09;;;;;;;1.10;0.60;;;;;;;38.13;18.63;100639.80;1745134;81;21620;-56
2021/05/22 11:01:44;;;;;;;0.80;0.50;;;;;;;38.18;19.97;100637.32;1848682;77;22144;-55
2021/05/22 11:04:25;;;;;;;2.58;0.70;;;;;;;38.52;19.74;100638.52;1821560;77;22174;-55
2021/05/22 11:07:14;;;;;;;0.55;0.45;;;;;;;38.51;19.90;100637.33;1828737;77;22131;-55
2021/05/22 11:09:49;;;;;;;3.22;0.82;;;;;;;38.81;19.17;100638.01;1834802;77;22124;-55
2021/05/22 11:12:41;;;;;;;2.47;0.70;;;;;;;38.74;16.11;100637.10;1719524;83;21312;-55
2021/05/22 11:15:48;;;;;;;2.27;0.55;;;;;;;37.99;15.43;100642.90;1847450;77;22103;-55
2021/05/22 11:18:27;;;;;;;0.80;0.50;;;;;;;37.27;16.80;100647.20;1834578;77;22642;-55
2021/05/22 11:21:24;;;;;;;1.87;0.40;;;;;;;36.91;18.20;100656.96;1770877;80;21091;-56
2021/05/22 11:24:01;;;;;;;0.50;0.50;;;;;;;37.05;17.24;100651.22;1806891;77;22182;-55
2021/05/22 11:26:57;;;;;;;0.78;0.50;;;;;;;36.68;16.88;100652.38;1853121;77;22650;-55
2021/05/22 11:29:58;;;;;;;2.12;0.60;;;;;;;36.54;18.02;100645.83;1834230;77;22112;-55
2021/05/22 11:33:00;;;;;;;2.58;0.57;;;;;;;36.32;17.49;100654.36;1812667;77;22205;-55
2021/05/22 11:35:44;;;;;;;0.90;0.60;;;;;;;36.32;18.11;100657.93;1827692;77;22142;-55
2021/05/22 11:38:25;;;;;;;1.00;0.60;;;;;;;36.45;16.96;100653.73;1817351;77;22174;-55
2021/05/22 11:41:01;;;;;;;0.85;0.50;;;;;;;36.38;18.39;100652.76;1831326;77;22589;-55
2021/05/22 11:43:37;;;;;;;0.62;0.47;;;;;;;35.90;18.06;100653.71;1793843;77;22197;-55
2021/05/22 11:46:26;;;;;;;1.15;0.60;;;;;;;36.08;17.27;100660.31;1742314;81;21135;-56
2021/05/22 11:48:58;;;;;;;1.20;0.55;;;;;;;35.85;16.58;100657.00;1825969;77;22636;-55
2021/05/22 11:51:37;;;;;;;0.80;0.47;;;;;;;35.41;16.66;100656.12;1832703;77;22144;-55
2021/05/22 11:54:08;;;;;;;1.57;0.40;;;;;;;35.05;18.00;100651.92;1824245;77;22185;-55
2021/05/22 11:56:41;;;;;;;1.27;0.60;;;;;;;35.17;19.16;100648.83;1807678;77;27987;-55
2021/05/22 11:59:14;;;;;;;0.62;0.47;;;;;;;35.75;18.94;100646.77;1804391;77;22170;-55
2021/05/22 12:01:47;;;;;;;1.90;0.78;;;;;;;36.28;19.88;100640.68;1824779;77;22158;-55
2021/05/22 12:04:20;;;;;;;2.00;0.60;;;;;;;37.00;20.29;100628.98;1820862;77;22182;-55
2021/05/22 12:06:55;;;;;;;1.10;0.60;;;;;;;37.68;19.54;100630.80;1852170;77;22166;-55
2021/05/22 12:09:29;;;;;;;1.30;0.60;;;;;;;38.27;18.23;100620.17;1819096;77;22190;-55
2021/05/22 12:12:29;;;;;;;6.83;1.20;;;;;;;38.40;17.11;100618.64;1821793;77;22227;-55
2021/05/22 12:15:04;;;;;;;4.80;0.90;;;;;;;38.38;18.45;100618.78;1827786;77;22135;-55
2021/05/22 12:17:44;;;;;;;2.10;0.68;;;;;;;38.61;18.44;100617.77;1826409;77;22170;-55
2021/05/22 12:20:18;;;;;;;0.82;0.70;;;;;;;38.83;17.95;100618.03;1790687;77;22176;-55